sensor_id;sensor_type;location;lat;lon;timestamp;temperature;humidity
50586;DHT22;36542;51.700;8.846;2024-03-17T00:02:18;5.60;99.90
50586;DHT22;36542;51.700;8.846;2024-03-17T00:04:45;5.60;99.90
50586;DHT22;36542;51.700;8.846;2024-03-17T00:07:11;5.60;99.90
50586;DHT22;36542;51.700;8.846;2024-03-17T00:09:37;5.50;99.90
50586;DHT22;36542;51.700;8.846;2024-03-17T00:12:03;5.50;99.90
50586;DHT22;36542;51.700;8.846;2024-03-17T00:14:28;5.40;99.90
50586;DHT22;36542;51.700;8.846;2024-03-17T00:16:54;5.30;99.90
50586;DHT22;36542;51.700;8.846;2024-03-17T00:19:20;5.20;99.90
50586;DHT22;36542;51.700;8.846;2024-03-17T00:21:48;5.00;99.90
50586;DHT22;36542;51.700;8.846;2024-03-17T00:24:16;5.00;99.90
50586;DHT22;36542;51.700;8.846;2024-03-17T00:26:42;5.00;99.90
50586;DHT22;36542;51.700;8.846;2024-03-17T00:29:07;4.90;99.90
50586;DHT22;36542;51.700;8.846;2024-03-17T00:31:34;4.80;99.90
50586;DHT22;36542;51.700;8.846;2024-03-17T00:34:01;4.90;99.90
50586;DHT22;36542;51.700;8.846;2024-03-17T00:36:26;4.90;99.90
50586;DHT22;36542;51.700;8.846;2024-03-17T00:38:52;4.80;99.90
50586;DHT22;36542;51.700;8.846;2024-03-17T00:41:18;4.70;99.90
50586;DHT22;36542;51.700;8.846;2024-03-17T00:43:45;4.60;99.90
50586;DHT22;36542;51.700;8.846;2024-03-17T00:46:10;4.50;99.90
50586;DHT22;36542;51.700;8.846;2024-03-17T00:48:37;4.40;99.90
50586;DHT22;36542;51.700;8.846;2024-03-17T00:51:03;4.20;99.90
50586;DHT22;36542;51.700;8.846;2024-03-17T00:53:29;4.20;99.90
50586;DHT22;36542;51.700;8.846;2024-03-17T00:55:55;4.10;99.90
50586;DHT22;36542;51.700;8.846;2024-03-17T00:58:24;4.10;99.90
50586;DHT22;36542;51.700;8.846;2024-03-17T01:00:50;4.10;99.90
50586;DHT22;36542;51.700;8.846;2024-03-17T01:03:19;4.00;99.90
50586;DHT22;36542;51.700;8.846;2024-03-17T01:05:45;4.00;99.90
50586;DHT22;36542;51.700;8.846;2024-03-17T01:08:13;3.90;99.90
50586;DHT22;36542;51.700;8.846;2024-03-17T01:10:43;3.90;99.90
50586;DHT22;36542;51.700;8.846;2024-03-17T01:13:09;4.00;99.90
50586;DHT22;36542;51.700;8.846;2024-03-17T01:15:40;4.10;99.90
50586;DHT22;36542;51.700;8.846;2024-03-17T01:18:06;4.10;99.90
50586;DHT22;36542;51.700;8.846;2024-03-17T01:20:32;4.10;99.90
50586;DHT22;36542;51.700;8.846;2024-03-17T01:22:59;4.10;99.90
50586;DHT22;36542;51.700;8.846;2024-03-17T01:25:25;4.10;99.90
50586;DHT22;36542;51.700;8.846;2024-03-17T01:27:52;4.00;99.90
50586;DHT22;36542;51.700;8.846;2024-03-17T01:30:17;3.90;99.90
50586;DHT22;36542;51.700;8.846;2024-03-17T01:32:45;3.80;99.90
50586;DHT22;36542;51.700;8.846;2024-03-17T01:35:11;3.80;99.90
50586;DHT22;36542;51.700;8.846;2024-03-17T01:37:37;3.80;99.90
50586;DHT22;36542;51.700;8.846;2024-03-17T01:40:03;3.90;99.90
50586;DHT22;36542;51.700;8.846;2024-03-17T01:42:39;3.90;99.90
50586;DHT22;36542;51.700;8.846;2024-03-17T01:45:31;3.90;99.90
50586;DHT22;36542;51.700;8.846;2024-03-17T01:48:00;3.90;99.90
50586;DHT22;36542;51.700;8.846;2024-03-17T01:50:31;3.90;99.90
50586;DHT22;36542;51.700;8.846;2024-03-17T01:52:58;3.80;99.90
50586;DHT22;36542;51.700;8.846;2024-03-17T01:55:26;3.80;99.90
50586;DHT22;36542;51.700;8.846;2024-03-17T01:57:53;3.60;99.90
50586;DHT22;36542;51.700;8.846;2024-03-17T02:00:19;3.50;99.90
50586;DHT22;36542;51.700;8.846;2024-03-17T02:02:46;3.40;99.90
50586;DHT22;36542;51.700;8.846;2024-03-17T02:05:12;3.40;99.90
50586;DHT22;36542;51.700;8.846;2024-03-17T02:07:39;3.40;99.90
50586;DHT22;36542;51.700;8.846;2024-03-17T02:10:04;3.40;99.90
50586;DHT22;36542;51.700;8.846;2024-03-17T02:12:31;3.30;99.90
50586;DHT22;36542;51.700;8.846;2024-03-17T02:15:00;3.30;99.90
50586;DHT22;36542;51.700;8.846;2024-03-17T02:17:27;3.00;99.90
50586;DHT22;36542;51.700;8.846;2024-03-17T02:19:54;2.70;99.90
50586;DHT22;36542;51.700;8.846;2024-03-17T02:22:20;2.60;99.90
50586;DHT22;36542;51.700;8.846;2024-03-17T02:24:46;2.50;99.90
50586;DHT22;36542;51.700;8.846;2024-03-17T02:27:12;2.50;99.90
50586;DHT22;36542;51.700;8.846;2024-03-17T02:29:38;2.50;99.90
50586;DHT22;36542;51.700;8.846;2024-03-17T02:32:07;2.40;99.90
50586;DHT22;36542;51.700;8.846;2024-03-17T02:34:37;2.40;99.90
50586;DHT22;36542;51.700;8.846;2024-03-17T02:37:04;2.50;99.90
50586;DHT22;36542;51.700;8.846;2024-03-17T02:39:34;2.60;99.90
50586;DHT22;36542;51.700;8.846;2024-03-17T02:42:07;2.60;99.90
50586;DHT22;36542;51.700;8.846;2024-03-17T02:44:34;2.60;99.90
50586;DHT22;36542;51.700;8.846;2024-03-17T02:47:01;2.60;99.90
50586;DHT22;36542;51.700;8.846;2024-03-17T02:49:28;2.70;99.90
50586;DHT22;36542;51.700;8.846;2024-03-17T02:52:00;2.60;99.90
50586;DHT22;36542;51.700;8.846;2024-03-17T02:54:26;2.60;99.90
50586;DHT22;36542;51.700;8.846;2024-03-17T02:56:52;2.50;99.90
50586;DHT22;36542;51.700;8.846;2024-03-17T02:59:17;2.50;99.90
50586;DHT22;36542;51.700;8.846;2024-03-17T03:01:43;2.50;99.90
50586;DHT22;36542;51.700;8.846;2024-03-17T03:04:10;2.50;99.90
50586;DHT22;36542;51.700;8.846;2024-03-17T03:06:36;2.60;99.90
50586;DHT22;36542;51.700;8.846;2024-03-17T03:09:03;2.60;99.90
50586;DHT22;36542;51.700;8.846;2024-03-17T03:11:31;2.60;99.90
50586;DHT22;36542;51.700;8.846;2024-03-17T03:13:57;2.60;99.90
50586;DHT22;36542;51.700;8.846;2024-03-17T03:16:22;2.50;99.90
50586;DHT22;36542;51.700;8.846;2024-03-17T03:18:50;2.40;99.90
50586;DHT22;36542;51.700;8.846;2024-03-17T03:21:16;2.20;99.90
50586;DHT22;36542;51.700;8.846;2024-03-17T03:23:44;2.10;99.90
50586;DHT22;36542;51.700;8.846;2024-03-17T03:26:11;2.10;99.90
50586;DHT22;36542;51.700;8.846;2024-03-17T03:28:37;2.00;99.90
50586;DHT22;36542;51.700;8.846;2024-03-17T03:31:04;1.90;99.90
50586;DHT22;36542;51.700;8.846;2024-03-17T03:33:29;1.90;99.90
50586;DHT22;36542;51.700;8.846;2024-03-17T03:35:55;1.80;99.90
50586;DHT22;36542;51.700;8.846;2024-03-17T03:38:21;1.80;99.90
50586;DHT22;36542;51.700;8.846;2024-03-17T03:40:48;1.80;99.90
50586;DHT22;36542;51.700;8.846;2024-03-17T03:43:14;1.90;99.90
50586;DHT22;36542;51.700;8.846;2024-03-17T03:45:40;2.00;99.90
50586;DHT22;36542;51.700;8.846;2024-03-17T03:48:06;2.00;99.90
50586;DHT22;36542;51.700;8.846;2024-03-17T03:50:34;1.90;99.90
50586;DHT22;36542;51.700;8.846;2024-03-17T03:53:00;2.00;99.90
50586;DHT22;36542;51.700;8.846;2024-03-17T03:55:25;2.10;99.90
50586;DHT22;36542;51.700;8.846;2024-03-17T03:57:51;2.10;99.90
50586;DHT22;36542;51.700;8.846;2024-03-17T04:00:21;2.10;99.90
50586;DHT22;36542;51.700;8.846;2024-03-17T04:02:48;2.20;99.90
50586;DHT22;36542;51.700;8.846;2024-03-17T04:05:14;2.30;99.90
50586;DHT22;36542;51.700;8.846;2024-03-17T04:07:40;2.40;99.90
50586;DHT22;36542;51.700;8.846;2024-03-17T04:10:08;2.30;99.90
50586;DHT22;36542;51.700;8.846;2024-03-17T04:12:34;2.30;99.90
50586;DHT22;36542;51.700;8.846;2024-03-17T04:15:00;2.10;99.90
50586;DHT22;36542;51.700;8.846;2024-03-17T04:17:26;2.10;99.90
50586;DHT22;36542;51.700;8.846;2024-03-17T04:19:53;2.10;99.90
50586;DHT22;36542;51.700;8.846;2024-03-17T04:22:20;2.20;99.90
50586;DHT22;36542;51.700;8.846;2024-03-17T04:24:46;2.20;99.90
50586;DHT22;36542;51.700;8.846;2024-03-17T04:27:13;2.20;99.90
50586;DHT22;36542;51.700;8.846;2024-03-17T04:29:39;2.30;99.90
50586;DHT22;36542;51.700;8.846;2024-03-17T04:32:06;2.20;99.90
50586;DHT22;36542;51.700;8.846;2024-03-17T04:34:32;2.10;99.90
50586;DHT22;36542;51.700;8.846;2024-03-17T04:36:58;2.00;99.90
50586;DHT22;36542;51.700;8.846;2024-03-17T04:39:24;2.00;99.90
50586;DHT22;36542;51.700;8.846;2024-03-17T04:41:50;2.00;99.90
50586;DHT22;36542;51.700;8.846;2024-03-17T04:44:17;1.90;99.90
50586;DHT22;36542;51.700;8.846;2024-03-17T04:46:43;1.90;99.90
50586;DHT22;36542;51.700;8.846;2024-03-17T04:49:09;1.90;99.90
50586;DHT22;36542;51.700;8.846;2024-03-17T04:51:34;1.90;99.90
50586;DHT22;36542;51.700;8.846;2024-03-17T04:54:01;2.00;99.90
50586;DHT22;36542;51.700;8.846;2024-03-17T04:56:29;2.00;99.90
50586;DHT22;36542;51.700;8.846;2024-03-17T04:58:55;2.10;99.90
50586;DHT22;36542;51.700;8.846;2024-03-17T05:01:21;2.10;99.90
50586;DHT22;36542;51.700;8.846;2024-03-17T05:03:46;2.10;99.90
50586;DHT22;36542;51.700;8.846;2024-03-17T05:06:12;2.10;99.90
50586;DHT22;36542;51.700;8.846;2024-03-17T05:08:37;2.10;99.90
50586;DHT22;36542;51.700;8.846;2024-03-17T05:11:05;2.10;99.90
50586;DHT22;36542;51.700;8.846;2024-03-17T05:13:35;2.10;99.90
50586;DHT22;36542;51.700;8.846;2024-03-17T05:16:01;2.00;99.90
50586;DHT22;36542;51.700;8.846;2024-03-17T05:18:27;2.10;99.90
50586;DHT22;36542;51.700;8.846;2024-03-17T05:21:03;2.10;99.90
50586;DHT22;36542;51.700;8.846;2024-03-17T05:23:30;2.10;99.90
50586;DHT22;36542;51.700;8.846;2024-03-17T05:25:57;2.00;99.90
50586;DHT22;36542;51.700;8.846;2024-03-17T05:28:24;2.00;99.90
50586;DHT22;36542;51.700;8.846;2024-03-17T05:30:50;2.00;99.90
50586;DHT22;36542;51.700;8.846;2024-03-17T05:33:21;2.00;99.90
50586;DHT22;36542;51.700;8.846;2024-03-17T05:35:51;2.00;99.90
50586;DHT22;36542;51.700;8.846;2024-03-17T05:38:19;2.00;99.90
50586;DHT22;36542;51.700;8.846;2024-03-17T05:40:59;1.90;99.90
50586;DHT22;36542;51.700;8.846;2024-03-17T05:43:28;1.80;99.90
50586;DHT22;36542;51.700;8.846;2024-03-17T05:45:57;1.90;99.90
50586;DHT22;36542;51.700;8.846;2024-03-17T05:48:23;1.90;99.90
50586;DHT22;36542;51.700;8.846;2024-03-17T05:50:50;2.00;99.90
50586;DHT22;36542;51.700;8.846;2024-03-17T05:53:17;2.10;99.90
50586;DHT22;36542;51.700;8.846;2024-03-17T05:55:46;2.10;99.90
50586;DHT22;36542;51.700;8.846;2024-03-17T05:58:12;2.30;99.90
50586;DHT22;36542;51.700;8.846;2024-03-17T06:00:39;2.30;99.90
50586;DHT22;36542;51.700;8.846;2024-03-17T06:03:05;2.50;99.90
50586;DHT22;36542;51.700;8.846;2024-03-17T06:05:32;2.70;99.90
50586;DHT22;36542;51.700;8.846;2024-03-17T06:07:58;2.80;99.90
50586;DHT22;36542;51.700;8.846;2024-03-17T06:10:24;3.10;99.90
50586;DHT22;36542;51.700;8.846;2024-03-17T06:12:50;3.40;99.90
50586;DHT22;36542;51.700;8.846;2024-03-17T06:15:16;3.70;99.90
50586;DHT22;36542;51.700;8.846;2024-03-17T06:17:42;4.20;99.90
50586;DHT22;36542;51.700;8.846;2024-03-17T06:20:08;5.10;99.90
50586;DHT22;36542;51.700;8.846;2024-03-17T06:22:39;6.10;99.90
50586;DHT22;36542;51.700;8.846;2024-03-17T06:25:05;6.90;99.90
50586;DHT22;36542;51.700;8.846;2024-03-17T06:27:32;7.50;99.90
50586;DHT22;36542;51.700;8.846;2024-03-17T06:29:59;8.10;99.90
50586;DHT22;36542;51.700;8.846;2024-03-17T06:32:29;8.70;99.90
50586;DHT22;36542;51.700;8.846;2024-03-17T06:34:55;9.30;99.90
50586;DHT22;36542;51.700;8.846;2024-03-17T06:37:22;9.80;99.90
50586;DHT22;36542;51.700;8.846;2024-03-17T06:39:48;10.30;99.90
50586;DHT22;36542;51.700;8.846;2024-03-17T06:42:14;10.60;99.90
50586;DHT22;36542;51.700;8.846;2024-03-17T06:44:39;11.20;99.90
50586;DHT22;36542;51.700;8.846;2024-03-17T06:47:05;11.30;99.90
50586;DHT22;36542;51.700;8.846;2024-03-17T06:49:31;11.90;99.90
50586;DHT22;36542;51.700;8.846;2024-03-17T06:51:56;12.70;99.90
50586;DHT22;36542;51.700;8.846;2024-03-17T06:54:22;12.60;99.90
50586;DHT22;36542;51.700;8.846;2024-03-17T06:56:48;12.50;99.90
50586;DHT22;36542;51.700;8.846;2024-03-17T06:59:13;12.70;99.90
50586;DHT22;36542;51.700;8.846;2024-03-17T07:01:39;12.60;99.90
50586;DHT22;36542;51.700;8.846;2024-03-17T07:04:04;12.80;99.90
50586;DHT22;36542;51.700;8.846;2024-03-17T07:06:31;13.00;99.90
50586;DHT22;36542;51.700;8.846;2024-03-17T07:08:56;12.70;99.90
50586;DHT22;36542;51.700;8.846;2024-03-17T07:11:22;12.20;99.90
50586;DHT22;36542;51.700;8.846;2024-03-17T07:13:49;11.80;99.90
50586;DHT22;36542;51.700;8.846;2024-03-17T07:16:18;11.90;99.90
50586;DHT22;36542;51.700;8.846;2024-03-17T07:18:44;12.30;99.90
50586;DHT22;36542;51.700;8.846;2024-03-17T07:21:10;13.10;99.90
50586;DHT22;36542;51.700;8.846;2024-03-17T07:23:36;13.80;99.90
50586;DHT22;36542;51.700;8.846;2024-03-17T07:26:03;14.40;99.90
50586;DHT22;36542;51.700;8.846;2024-03-17T07:28:30;15.40;99.90
50586;DHT22;36542;51.700;8.846;2024-03-17T07:30:58;16.30;99.90
50586;DHT22;36542;51.700;8.846;2024-03-17T07:33:24;17.00;99.90
50586;DHT22;36542;51.700;8.846;2024-03-17T07:35:51;17.40;99.90
50586;DHT22;36542;51.700;8.846;2024-03-17T07:38:17;17.60;99.90
50586;DHT22;36542;51.700;8.846;2024-03-17T07:40:44;17.80;99.90
50586;DHT22;36542;51.700;8.846;2024-03-17T07:43:10;18.00;99.90
50586;DHT22;36542;51.700;8.846;2024-03-17T07:45:35;18.30;99.90
50586;DHT22;36542;51.700;8.846;2024-03-17T07:48:01;17.90;99.90
50586;DHT22;36542;51.700;8.846;2024-03-17T07:50:27;18.60;99.90
50586;DHT22;36542;51.700;8.846;2024-03-17T07:52:52;19.70;99.90
50586;DHT22;36542;51.700;8.846;2024-03-17T07:55:18;19.60;99.90
50586;DHT22;36542;51.700;8.846;2024-03-17T07:57:43;19.80;99.90
50586;DHT22;36542;51.700;8.846;2024-03-17T08:00:10;20.10;99.90
50586;DHT22;36542;51.700;8.846;2024-03-17T08:02:47;19.70;99.90
50586;DHT22;36542;51.700;8.846;2024-03-17T08:05:12;19.50;99.90
50586;DHT22;36542;51.700;8.846;2024-03-17T08:07:39;19.60;99.90
50586;DHT22;36542;51.700;8.846;2024-03-17T08:10:05;19.90;99.90
50586;DHT22;36542;51.700;8.846;2024-03-17T08:12:31;19.30;99.90
50586;DHT22;36542;51.700;8.846;2024-03-17T08:14:56;19.50;99.90
50586;DHT22;36542;51.700;8.846;2024-03-17T08:17:22;19.80;99.90
50586;DHT22;36542;51.700;8.846;2024-03-17T08:19:47;20.10;98.80
50586;DHT22;36542;51.700;8.846;2024-03-17T08:22:13;20.30;98.90
50586;DHT22;36542;51.700;8.846;2024-03-17T08:24:40;20.50;98.20
50586;DHT22;36542;51.700;8.846;2024-03-17T08:27:05;20.30;97.70
50586;DHT22;36542;51.700;8.846;2024-03-17T08:29:32;21.00;97.40
50586;DHT22;36542;51.700;8.846;2024-03-17T08:31:58;21.30;96.50
50586;DHT22;36542;51.700;8.846;2024-03-17T08:34:24;20.60;97.10
50586;DHT22;36542;51.700;8.846;2024-03-17T08:36:50;19.30;97.70
50586;DHT22;36542;51.700;8.846;2024-03-17T08:39:15;16.60;99.90
50586;DHT22;36542;51.700;8.846;2024-03-17T08:41:41;15.60;99.90
50586;DHT22;36542;51.700;8.846;2024-03-17T08:44:09;14.70;99.90
50586;DHT22;36542;51.700;8.846;2024-03-17T08:46:35;13.40;99.90
50586;DHT22;36542;51.700;8.846;2024-03-17T08:49:01;13.50;99.90
50586;DHT22;36542;51.700;8.846;2024-03-17T08:51:26;13.50;99.90
50586;DHT22;36542;51.700;8.846;2024-03-17T08:53:53;13.10;99.90
50586;DHT22;36542;51.700;8.846;2024-03-17T08:56:18;13.10;99.90
50586;DHT22;36542;51.700;8.846;2024-03-17T08:58:46;13.70;99.90
50586;DHT22;36542;51.700;8.846;2024-03-17T09:01:13;13.20;99.90
50586;DHT22;36542;51.700;8.846;2024-03-17T09:03:40;13.10;99.90
50586;DHT22;36542;51.700;8.846;2024-03-17T09:06:14;14.00;99.90
50586;DHT22;36542;51.700;8.846;2024-03-17T09:08:42;16.40;99.90
50586;DHT22;36542;51.700;8.846;2024-03-17T09:11:12;17.20;99.90
50586;DHT22;36542;51.700;8.846;2024-03-17T09:13:38;18.50;99.30
50586;DHT22;36542;51.700;8.846;2024-03-17T09:16:04;18.40;99.90
50586;DHT22;36542;51.700;8.846;2024-03-17T09:18:31;19.00;98.70
50586;DHT22;36542;51.700;8.846;2024-03-17T09:21:02;19.20;98.50
50586;DHT22;36542;51.700;8.846;2024-03-17T09:23:28;19.50;97.70
50586;DHT22;36542;51.700;8.846;2024-03-17T09:25:59;16.80;99.90
50586;DHT22;36542;51.700;8.846;2024-03-17T09:28:25;15.70;99.90
50586;DHT22;36542;51.700;8.846;2024-03-17T09:30:51;15.20;99.90
50586;DHT22;36542;51.700;8.846;2024-03-17T09:33:24;16.70;99.90
50586;DHT22;36542;51.700;8.846;2024-03-17T09:35:54;17.90;99.90
50586;DHT22;36542;51.700;8.846;2024-03-17T09:38:20;17.50;99.50
50586;DHT22;36542;51.700;8.846;2024-03-17T09:40:47;15.80;99.90
50586;DHT22;36542;51.700;8.846;2024-03-17T09:43:15;15.50;99.90
50586;DHT22;36542;51.700;8.846;2024-03-17T09:45:40;15.90;99.90
50586;DHT22;36542;51.700;8.846;2024-03-17T09:48:06;15.70;99.90
50586;DHT22;36542;51.700;8.846;2024-03-17T09:50:33;14.20;99.90
50586;DHT22;36542;51.700;8.846;2024-03-17T09:53:00;14.10;99.90
50586;DHT22;36542;51.700;8.846;2024-03-17T09:55:27;14.40;99.90
50586;DHT22;36542;51.700;8.846;2024-03-17T09:57:53;13.70;99.90
50586;DHT22;36542;51.700;8.846;2024-03-17T10:00:18;12.90;99.90
50586;DHT22;36542;51.700;8.846;2024-03-17T10:02:45;12.70;99.90
50586;DHT22;36542;51.700;8.846;2024-03-17T10:05:24;13.60;99.90
50586;DHT22;36542;51.700;8.846;2024-03-17T10:07:51;14.30;99.90
50586;DHT22;36542;51.700;8.846;2024-03-17T10:10:18;14.30;99.90
50586;DHT22;36542;51.700;8.846;2024-03-17T10:12:52;14.20;99.90
50586;DHT22;36542;51.700;8.846;2024-03-17T10:15:18;12.70;99.90
50586;DHT22;36542;51.700;8.846;2024-03-17T10:17:45;13.20;99.90
50586;DHT22;36542;51.700;8.846;2024-03-17T10:20:18;14.30;99.90
50586;DHT22;36542;51.700;8.846;2024-03-17T10:23:01;14.90;99.90
50586;DHT22;36542;51.700;8.846;2024-03-17T10:25:32;14.90;99.90
50586;DHT22;36542;51.700;8.846;2024-03-17T10:27:58;14.70;99.90
50586;DHT22;36542;51.700;8.846;2024-03-17T10:30:25;14.60;99.90
50586;DHT22;36542;51.700;8.846;2024-03-17T10:32:56;14.60;99.90
50586;DHT22;36542;51.700;8.846;2024-03-17T10:35:37;14.10;99.90
50586;DHT22;36542;51.700;8.846;2024-03-17T10:38:08;14.00;99.90
50586;DHT22;36542;51.700;8.846;2024-03-17T10:40:35;13.70;99.90
50586;DHT22;36542;51.700;8.846;2024-03-17T10:43:04;13.80;99.90
50586;DHT22;36542;51.700;8.846;2024-03-17T10:45:32;13.40;99.90
50586;DHT22;36542;51.700;8.846;2024-03-17T10:48:06;14.20;99.90
50586;DHT22;36542;51.700;8.846;2024-03-17T10:50:36;14.50;99.90
50586;DHT22;36542;51.700;8.846;2024-03-17T10:53:04;15.10;99.90
50586;DHT22;36542;51.700;8.846;2024-03-17T10:55:46;15.20;99.90
50586;DHT22;36542;51.700;8.846;2024-03-17T10:58:36;15.20;99.90
50586;DHT22;36542;51.700;8.846;2024-03-17T11:01:10;14.50;99.90
50586;DHT22;36542;51.700;8.846;2024-03-17T11:03:37;14.50;99.90
50586;DHT22;36542;51.700;8.846;2024-03-17T11:06:05;14.80;99.90
50586;DHT22;36542;51.700;8.846;2024-03-17T11:08:32;13.90;99.90
50586;DHT22;36542;51.700;8.846;2024-03-17T11:10:59;13.20;99.90
50586;DHT22;36542;51.700;8.846;2024-03-17T11:13:30;13.60;99.90
50586;DHT22;36542;51.700;8.846;2024-03-17T11:15:57;14.00;99.90
50586;DHT22;36542;51.700;8.846;2024-03-17T11:18:33;13.50;99.90
50586;DHT22;36542;51.700;8.846;2024-03-17T11:21:18;14.00;99.90
50586;DHT22;36542;51.700;8.846;2024-03-17T11:23:59;13.70;99.90
50586;DHT22;36542;51.700;8.846;2024-03-17T11:26:30;13.40;99.90
50586;DHT22;36542;51.700;8.846;2024-03-17T11:28:56;13.70;99.90
50586;DHT22;36542;51.700;8.846;2024-03-17T11:31:43;13.50;99.90
50586;DHT22;36542;51.700;8.846;2024-03-17T11:34:32;13.90;99.90
50586;DHT22;36542;51.700;8.846;2024-03-17T11:36:59;14.70;99.90
50586;DHT22;36542;51.700;8.846;2024-03-17T11:39:48;14.70;99.90
50586;DHT22;36542;51.700;8.846;2024-03-17T11:42:21;15.00;99.90
50586;DHT22;36542;51.700;8.846;2024-03-17T11:45:12;14.80;99.90
50586;DHT22;36542;51.700;8.846;2024-03-17T11:47:41;15.00;99.90
50586;DHT22;36542;51.700;8.846;2024-03-17T11:50:09;14.40;99.90
50586;DHT22;36542;51.700;8.846;2024-03-17T11:52:36;14.20;99.90
50586;DHT22;36542;51.700;8.846;2024-03-17T11:55:02;13.70;99.90
50586;DHT22;36542;51.700;8.846;2024-03-17T11:57:28;13.10;99.90
50586;DHT22;36542;51.700;8.846;2024-03-17T11:59:54;12.80;99.90
50586;DHT22;36542;51.700;8.846;2024-03-17T12:02:26;13.00;99.90
50586;DHT22;36542;51.700;8.846;2024-03-17T12:04:53;12.90;99.90
50586;DHT22;36542;51.700;8.846;2024-03-17T12:07:20;12.90;99.90
50586;DHT22;36542;51.700;8.846;2024-03-17T12:09:49;12.60;99.90
50586;DHT22;36542;51.700;8.846;2024-03-17T12:12:22;12.70;99.90
50586;DHT22;36542;51.700;8.846;2024-03-17T12:14:49;12.80;99.90
50586;DHT22;36542;51.700;8.846;2024-03-17T12:17:21;12.70;99.90
50586;DHT22;36542;51.700;8.846;2024-03-17T12:19:47;13.00;99.90
50586;DHT22;36542;51.700;8.846;2024-03-17T12:22:22;13.00;99.90
50586;DHT22;36542;51.700;8.846;2024-03-17T12:24:49;12.90;99.90
50586;DHT22;36542;51.700;8.846;2024-03-17T12:27:22;12.80;99.90
50586;DHT22;36542;51.700;8.846;2024-03-17T12:29:49;13.10;99.90
50586;DHT22;36542;51.700;8.846;2024-03-17T12:32:20;12.70;99.90
50586;DHT22;36542;51.700;8.846;2024-03-17T12:34:53;12.40;99.90
50586;DHT22;36542;51.700;8.846;2024-03-17T12:37:20;12.60;99.90
50586;DHT22;36542;51.700;8.846;2024-03-17T12:39:46;12.40;99.90
50586;DHT22;36542;51.700;8.846;2024-03-17T12:42:16;12.80;99.90
50586;DHT22;36542;51.700;8.846;2024-03-17T12:44:55;13.20;99.90
50586;DHT22;36542;51.700;8.846;2024-03-17T12:47:22;13.10;99.90
50586;DHT22;36542;51.700;8.846;2024-03-17T12:49:48;13.10;99.90
50586;DHT22;36542;51.700;8.846;2024-03-17T12:52:30;12.90;99.90
50586;DHT22;36542;51.700;8.846;2024-03-17T12:55:00;12.50;99.90
50586;DHT22;36542;51.700;8.846;2024-03-17T12:57:46;12.60;99.90
50586;DHT22;36542;51.700;8.846;2024-03-17T13:00:31;12.80;99.90
50586;DHT22;36542;51.700;8.846;2024-03-17T13:03:07;12.90;99.90
50586;DHT22;36542;51.700;8.846;2024-03-17T13:05:35;12.80;99.90
50586;DHT22;36542;51.700;8.846;2024-03-17T13:08:02;12.90;99.90
50586;DHT22;36542;51.700;8.846;2024-03-17T13:10:29;13.10;99.90
50586;DHT22;36542;51.700;8.846;2024-03-17T13:13:08;13.10;99.90
50586;DHT22;36542;51.700;8.846;2024-03-17T13:15:34;13.20;99.90
50586;DHT22;36542;51.700;8.846;2024-03-17T13:18:05;13.20;99.90
50586;DHT22;36542;51.700;8.846;2024-03-17T13:20:34;13.30;99.90
50586;DHT22;36542;51.700;8.846;2024-03-17T13:23:01;13.20;99.90
50586;DHT22;36542;51.700;8.846;2024-03-17T13:25:30;13.10;99.90
50586;DHT22;36542;51.700;8.846;2024-03-17T13:28:00;13.20;99.90
50586;DHT22;36542;51.700;8.846;2024-03-17T13:30:26;12.90;99.90
50586;DHT22;36542;51.700;8.846;2024-03-17T13:32:54;12.80;99.90
50586;DHT22;36542;51.700;8.846;2024-03-17T13:35:27;13.10;99.90
50586;DHT22;36542;51.700;8.846;2024-03-17T13:37:53;13.30;99.90
50586;DHT22;36542;51.700;8.846;2024-03-17T13:40:25;13.50;99.90
50586;DHT22;36542;51.700;8.846;2024-03-17T13:42:53;13.20;99.90
50586;DHT22;36542;51.700;8.846;2024-03-17T13:45:21;13.30;99.90
50586;DHT22;36542;51.700;8.846;2024-03-17T13:48:01;13.40;99.90
50586;DHT22;36542;51.700;8.846;2024-03-17T13:50:27;13.40;99.90
50586;DHT22;36542;51.700;8.846;2024-03-17T13:52:53;13.10;99.90
50586;DHT22;36542;51.700;8.846;2024-03-17T13:55:20;13.20;99.90
50586;DHT22;36542;51.700;8.846;2024-03-17T13:57:51;13.20;99.90
50586;DHT22;36542;51.700;8.846;2024-03-17T14:00:17;13.30;99.90
50586;DHT22;36542;51.700;8.846;2024-03-17T14:02:45;13.40;99.90
50586;DHT22;36542;51.700;8.846;2024-03-17T14:05:16;13.30;99.90
50586;DHT22;36542;51.700;8.846;2024-03-17T14:07:42;13.20;99.90
50586;DHT22;36542;51.700;8.846;2024-03-17T14:10:09;13.20;99.90
50586;DHT22;36542;51.700;8.846;2024-03-17T14:12:36;13.30;99.90
50586;DHT22;36542;51.700;8.846;2024-03-17T14:15:04;13.30;99.90
50586;DHT22;36542;51.700;8.846;2024-03-17T14:17:33;13.40;99.90
50586;DHT22;36542;51.700;8.846;2024-03-17T14:19:59;13.30;99.90
50586;DHT22;36542;51.700;8.846;2024-03-17T14:22:25;13.40;99.90
50586;DHT22;36542;51.700;8.846;2024-03-17T14:24:51;13.30;99.90
50586;DHT22;36542;51.700;8.846;2024-03-17T14:27:18;13.30;99.90
50586;DHT22;36542;51.700;8.846;2024-03-17T14:29:45;13.30;99.90
50586;DHT22;36542;51.700;8.846;2024-03-17T14:32:11;13.30;99.90
50586;DHT22;36542;51.700;8.846;2024-03-17T14:34:37;13.10;99.90
50586;DHT22;36542;51.700;8.846;2024-03-17T14:37:03;13.00;99.90
50586;DHT22;36542;51.700;8.846;2024-03-17T14:39:30;13.10;99.90
50586;DHT22;36542;51.700;8.846;2024-03-17T14:41:57;13.00;99.90
50586;DHT22;36542;51.700;8.846;2024-03-17T14:44:23;12.90;99.90
50586;DHT22;36542;51.700;8.846;2024-03-17T14:46:49;12.80;99.90
50586;DHT22;36542;51.700;8.846;2024-03-17T14:49:18;12.70;99.90
50586;DHT22;36542;51.700;8.846;2024-03-17T14:51:44;12.60;99.90
50586;DHT22;36542;51.700;8.846;2024-03-17T14:54:10;12.50;99.90
50586;DHT22;36542;51.700;8.846;2024-03-17T14:56:36;12.50;99.90
50586;DHT22;36542;51.700;8.846;2024-03-17T14:59:02;12.30;99.90
50586;DHT22;36542;51.700;8.846;2024-03-17T15:01:28;12.20;99.90
50586;DHT22;36542;51.700;8.846;2024-03-17T15:03:57;12.10;99.90
50586;DHT22;36542;51.700;8.846;2024-03-17T15:06:22;12.10;99.90
50586;DHT22;36542;51.700;8.846;2024-03-17T15:08:50;12.20;99.90
50586;DHT22;36542;51.700;8.846;2024-03-17T15:11:15;12.20;99.90
50586;DHT22;36542;51.700;8.846;2024-03-17T15:13:43;12.10;99.90
50586;DHT22;36542;51.700;8.846;2024-03-17T15:16:10;12.00;99.90
50586;DHT22;36542;51.700;8.846;2024-03-17T15:18:37;12.00;99.90
50586;DHT22;36542;51.700;8.846;2024-03-17T15:21:03;11.90;99.90
50586;DHT22;36542;51.700;8.846;2024-03-17T15:23:32;12.10;99.90
50586;DHT22;36542;51.700;8.846;2024-03-17T15:26:05;12.10;99.90
50586;DHT22;36542;51.700;8.846;2024-03-17T15:28:39;12.10;99.90
50586;DHT22;36542;51.700;8.846;2024-03-17T15:31:06;12.00;99.90
50586;DHT22;36542;51.700;8.846;2024-03-17T15:33:36;12.10;99.90
50586;DHT22;36542;51.700;8.846;2024-03-17T15:36:03;12.00;99.90
50586;DHT22;36542;51.700;8.846;2024-03-17T15:38:30;11.80;99.90
50586;DHT22;36542;51.700;8.846;2024-03-17T15:40:57;11.80;99.90
50586;DHT22;36542;51.700;8.846;2024-03-17T15:43:22;11.70;99.90